Time;durP1;ratioP1;P1;durP2;ratioP2;P2;SDS_P1;SDS_P2;PMS_P1;PMS_P2;Temp;Humidity;BMP_temperature;BMP_pressure;BME280_temperature;BME280_humidity;BME280_pressure;Samples;Min_cycle;Max_cycle;Signal;HPM_P1;HPM_P2
2021/11/16 00:01:10;;;;;;;65.60;40.25;;;5.70;99.90;;;;;;5019851;28;20514;-66
2021/11/16 00:03:36;;;;;;;71.05;41.30;;;5.70;99.90;;;;;;5025459;28;20036;-66
2021/11/16 00:06:02;;;;;;;68.18;39.45;;;5.70;99.90;;;;;;5023931;28;20485;-65
2021/11/16 00:08:28;;;;;;;67.78;39.70;;;5.70;99.90;;;;;;5025723;28;20041;-66
2021/11/16 00:10:54;;;;;;;71.13;39.72;;;5.60;99.90;;;;;;5019987;28;20453;-66
2021/11/16 00:13:20;;;;;;;71.63;38.75;;;5.70;99.90;;;;;;4988490;28;20050;-66
2021/11/16 00:15:46;;;;;;;62.25;37.72;;;5.60;99.90;;;;;;4985721;28;20491;-66
2021/11/16 00:18:16;;;;;;;65.70;40.03;;;5.70;99.90;;;;;;5008483;28;20049;-66
2021/11/16 00:20:43;;;;;;;65.00;39.78;;;5.60;99.90;;;;;;5021074;28;20052;-65
2021/11/16 00:23:21;;;;;;;65.70;39.08;;;5.70;99.90;;;;;;5023993;28;20517;-66
2021/11/16 00:25:53;;;;;;;64.05;36.83;;;5.60;99.90;;;;;;5023136;28;20073;-66
2021/11/16 00:28:20;;;;;;;66.28;39.33;;;5.60;99.90;;;;;;5008448;28;20137;-66
2021/11/16 00:30:46;;;;;;;65.38;38.85;;;5.60;99.90;;;;;;5002482;28;20046;-66
2021/11/16 00:33:13;;;;;;;64.07;38.88;;;5.60;99.90;;;;;;5028067;28;20025;-66
2021/11/16 00:35:39;;;;;;;64.38;38.90;;;5.70;99.90;;;;;;5021470;28;20045;-66
2021/11/16 00:38:10;;;;;;;68.28;39.35;;;5.60;99.90;;;;;;5025519;28;20099;-64
2021/11/16 00:40:37;;;;;;;60.40;37.00;;;5.70;99.90;;;;;;5005000;28;20053;-63
2021/11/16 00:43:07;;;;;;;60.63;36.38;;;5.70;99.90;;;;;;5007692;28;20054;-64
2021/11/16 00:45:34;;;;;;;65.80;38.03;;;5.70;99.90;;;;;;5005680;28;20110;-64
2021/11/16 00:48:00;;;;;;;62.15;35.70;;;5.70;99.90;;;;;;5021928;28;20041;-64
2021/11/16 00:50:26;;;;;;;60.97;36.97;;;5.70;99.90;;;;;;5026947;28;20379;-64
2021/11/16 00:52:52;;;;;;;62.00;35.97;;;5.70;99.90;;;;;;5020847;28;20050;-64
2021/11/16 00:55:18;;;;;;;62.33;36.20;;;5.70;99.90;;;;;;5004094;28;20341;-64
2021/11/16 00:57:45;;;;;;;61.53;35.70;;;5.70;99.90;;;;;;5017394;28;20038;-64
2021/11/16 01:00:14;;;;;;;60.67;35.45;;;5.70;99.90;;;;;;5026427;28;20448;-64
2021/11/16 01:02:40;;;;;;;63.65;36.22;;;5.70;99.90;;;;;;5019377;28;20042;-64
2021/11/16 01:05:06;;;;;;;64.65;37.30;;;5.70;99.90;;;;;;5021623;28;20379;-66
2021/11/16 01:07:32;;;;;;;65.30;36.33;;;5.70;99.90;;;;;;5020864;28;20106;-66
2021/11/16 01:09:59;;;;;;;62.70;34.95;;;5.60;99.90;;;;;;5026332;28;20609;-66
2021/11/16 01:12:25;;;;;;;61.97;37.00;;;5.70;99.90;;;;;;4982166;28;20052;-66
2021/11/16 01:14:53;;;;;;;64.45;35.13;;;5.70;99.90;;;;;;5031231;28;20037;-66
2021/11/16 01:17:20;;;;;;;62.53;36.45;;;5.70;99.90;;;;;;5019748;28;20049;-66
2021/11/16 01:19:48;;;;;;;61.65;35.72;;;5.70;99.90;;;;;;5006755;28;20042;-66
2021/11/16 01:22:16;;;;;;;60.67;36.13;;;5.60;99.90;;;;;;5019471;28;20265;-66
2021/11/16 01:24:42;;;;;;;63.13;36.08;;;5.70;99.90;;;;;;5004646;28;20075;-66
2021/11/16 01:27:10;;;;;;;62.30;36.13;;;5.70;99.90;;;;;;5026023;28;20068;-66
2021/11/16 01:29:38;;;;;;;62.42;36.95;;;5.70;99.90;;;;;;4990240;28;20521;-66
2021/11/16 01:32:06;;;;;;;63.55;36.22;;;5.60;99.90;;;;;;5005059;28;20051;-66
2021/11/16 01:34:34;;;;;;;62.85;36.22;;;5.70;99.90;;;;;;5021769;28;20033;-66
2021/11/16 01:37:00;;;;;;;62.72;35.42;;;5.60;99.90;;;;;;5026604;28;20057;-66
2021/11/16 01:39:27;;;;;;;66.40;36.20;;;5.60;99.90;;;;;;5015283;28;20107;-66
2021/11/16 01:41:53;;;;;;;61.22;34.85;;;5.60;99.90;;;;;;5022320;28;20053;-66
2021/11/16 01:44:19;;;;;;;65.63;37.20;;;5.60;99.90;;;;;;5018511;28;20452;-66
2021/11/16 01:46:45;;;;;;;61.58;35.38;;;5.60;99.90;;;;;;5023685;28;20121;-66
2021/11/16 01:49:11;;;;;;;66.60;35.78;;;5.60;99.90;;;;;;5019975;28;20432;-66
2021/11/16 01:51:38;;;;;;;60.08;33.97;;;5.50;99.90;;;;;;5022661;28;20045;-66
2021/11/16 01:54:05;;;;;;;66.22;36.85;;;5.60;99.90;;;;;;5019334;28;20384;-66
2021/11/16 01:56:35;;;;;;;67.10;36.90;;;5.50;99.90;;;;;;5027513;28;20432;-66
2021/11/16 01:59:01;;;;;;;62.70;34.83;;;5.60;99.90;;;;;;5001008;28;20041;-66
2021/11/16 02:01:29;;;;;;;62.72;36.47;;;5.60;99.90;;;;;;5021165;28;20045;-66
2021/11/16 02:03:56;;;;;;;59.80;33.38;;;5.60;99.90;;;;;;5021772;28;20041;-66
2021/11/16 02:06:24;;;;;;;61.92;35.53;;;5.60;99.90;;;;;;5020744;28;20048;-66
2021/11/16 02:08:52;;;;;;;62.45;35.55;;;5.60;99.90;;;;;;5022729;28;20084;-66
2021/11/16 02:11:18;;;;;;;64.20;36.60;;;5.60;99.90;;;;;;5020229;28;20104;-66
2021/11/16 02:13:45;;;;;;;60.08;35.28;;;5.60;99.90;;;;;;5019687;28;20075;-66
2021/11/16 02:16:11;;;;;;;68.82;36.83;;;5.60;99.90;;;;;;5021632;28;20125;-66
2021/11/16 02:18:38;;;;;;;67.03;35.97;;;5.60;99.90;;;;;;5025345;28;20128;-66
2021/11/16 02:21:04;;;;;;;68.28;37.05;;;5.60;99.90;;;;;;5015836;28;20048;-66
2021/11/16 02:23:31;;;;;;;67.05;36.75;;;5.60;99.90;;;;;;5025119;28;20042;-66
2021/11/16 02:25:56;;;;;;;66.60;37.17;;;5.60;99.90;;;;;;5003030;28;20410;-66
2021/11/16 02:28:22;;;;;;;66.28;37.30;;;5.60;99.90;;;;;;5023117;28;20045;-66
2021/11/16 02:30:49;;;;;;;64.90;36.03;;;5.50;99.90;;;;;;5015876;28;20049;-66
2021/11/16 02:33:15;;;;;;;62.13;34.90;;;5.50;99.90;;;;;;5023855;28;20116;-66
2021/11/16 02:35:43;;;;;;;65.85;36.00;;;5.50;99.90;;;;;;5001399;28;20065;-66
2021/11/16 02:38:10;;;;;;;69.07;37.28;;;5.60;99.90;;;;;;5024351;28;20164;-66
2021/11/16 02:40:36;;;;;;;72.82;37.58;;;5.50;99.90;;;;;;4999615;28;20079;-66
2021/11/16 02:43:03;;;;;;;66.82;36.75;;;5.50;99.90;;;;;;5001232;28;20704;-66
2021/11/16 02:45:28;;;;;;;61.90;35.10;;;5.50;99.90;;;;;;5001328;28;20042;-66
2021/11/16 02:47:54;;;;;;;65.45;35.28;;;5.60;99.90;;;;;;4999952;28;20031;-66
2021/11/16 02:50:20;;;;;;;67.68;37.88;;;5.60;99.90;;;;;;5005834;28;20033;-66
2021/11/16 02:52:46;;;;;;;68.93;38.20;;;5.60;99.90;;;;;;4997604;28;20033;-66
2021/11/16 02:55:12;;;;;;;69.15;36.65;;;5.60;99.90;;;;;;5002521;28;20050;-66
2021/11/16 02:57:39;;;;;;;73.60;39.05;;;5.60;99.90;;;;;;4997856;28;20046;-66
2021/11/16 03:00:23;;;;;;;70.75;37.28;;;5.60;99.90;;;;;;5005448;28;20050;-66
2021/11/16 03:02:49;;;;;;;67.10;37.42;;;5.60;99.90;;;;;;4994755;28;20148;-66
2021/11/16 03:05:15;;;;;;;76.97;38.38;;;5.50;99.90;;;;;;5007135;28;20403;-66
2021/11/16 03:07:47;;;;;;;67.90;36.58;;;5.60;99.90;;;;;;4998562;28;20055;-66
2021/11/16 03:10:17;;;;;;;69.32;37.17;;;5.50;99.90;;;;;;5005511;28;20088;-66
2021/11/16 03:12:43;;;;;;;72.05;37.53;;;5.50;99.90;;;;;;4993178;28;20144;-66
2021/11/16 03:15:09;;;;;;;66.32;35.72;;;5.50;99.90;;;;;;5002498;28;20449;-66
2021/11/16 03:17:35;;;;;;;69.53;38.67;;;5.60;99.90;;;;;;4999235;28;20044;-66
2021/11/16 03:20:01;;;;;;;69.32;37.55;;;5.50;99.90;;;;;;5007066;28;20494;-66
2021/11/16 03:22:34;;;;;;;69.70;37.45;;;5.50;99.90;;;;;;4994262;28;20046;-66
2021/11/16 03:25:00;;;;;;;67.88;37.67;;;5.60;99.90;;;;;;5006981;28;20437;-64
2021/11/16 03:27:33;;;;;;;70.65;37.60;;;5.60;99.90;;;;;;4998433;28;20107;-64
2021/11/16 03:30:00;;;;;;;71.40;38.67;;;5.60;99.90;;;;;;5005028;28;20069;-64
2021/11/16 03:32:45;;;;;;;71.88;39.78;;;5.60;99.90;;;;;;5003450;28;20050;-64
2021/11/16 03:35:11;;;;;;;71.05;38.72;;;5.60;99.90;;;;;;5009083;28;20050;-64
2021/11/16 03:37:43;;;;;;;70.20;39.00;;;5.60;99.90;;;;;;5001404;28;25801;-64
2021/11/16 03:40:10;;;;;;;70.28;38.10;;;5.60;99.90;;;;;;5010909;28;20054;-64
2021/11/16 03:42:40;;;;;;;70.43;39.35;;;5.60;99.90;;;;;;5021141;28;20051;-64
2021/11/16 03:45:07;;;;;;;75.13;39.50;;;5.60;99.90;;;;;;5024099;28;20033;-64
2021/11/16 03:47:33;;;;;;;77.57;39.35;;;5.60;99.90;;;;;;5026994;28;20041;-65
2021/11/16 03:49:59;;;;;;;73.43;39.20;;;5.60;99.90;;;;;;5025303;28;20377;-66
2021/11/16 03:52:26;;;;;;;70.93;39.45;;;5.60;99.90;;;;;;5025624;28;20041;-66
2021/11/16 03:54:53;;;;;;;79.60;41.83;;;5.60;99.90;;;;;;5023001;28;20045;-66
2021/11/16 03:57:22;;;;;;;76.22;40.10;;;5.60;99.90;;;;;;5022338;28;20051;-66
2021/11/16 03:59:48;;;;;;;77.43;40.70;;;5.60;99.90;;;;;;5003233;28;20088;-66
2021/11/16 04:02:13;;;;;;;72.85;39.58;;;5.50;99.90;;;;;;5028123;28;20489;-66
2021/11/16 04:04:42;;;;;;;76.65;39.22;;;5.50;99.90;;;;;;5019919;28;20045;-66
2021/11/16 04:07:07;;;;;;;74.70;39.10;;;5.50;99.90;;;;;;5006901;28;20033;-66
2021/11/16 04:09:33;;;;;;;74.03;39.30;;;5.50;99.90;;;;;;5019762;28;20038;-66
2021/11/16 04:11:59;;;;;;;70.53;38.45;;;5.50;99.90;;;;;;5022866;28;20044;-66
2021/11/16 04:14:24;;;;;;;79.93;38.78;;;5.50;99.90;;;;;;5024627;28;20034;-66
2021/11/16 04:16:52;;;;;;;80.72;39.63;;;5.40;99.90;;;;;;5025815;28;20111;-66
2021/11/16 04:19:18;;;;;;;74.18;38.60;;;5.40;99.90;;;;;;5019070;28;20167;-66
2021/11/16 04:21:43;;;;;;;77.88;39.67;;;5.40;99.90;;;;;;5009022;28;20447;-66
2021/11/16 04:24:09;;;;;;;75.78;39.35;;;5.40;99.90;;;;;;5019787;28;20045;-64
2021/11/16 04:26:35;;;;;;;74.68;39.30;;;5.40;99.90;;;;;;5026420;28;20471;-64
2021/11/16 04:29:01;;;;;;;71.05;37.00;;;5.50;99.90;;;;;;5028494;28;20037;-66
2021/11/16 04:31:28;;;;;;;76.57;38.63;;;5.40;99.90;;;;;;5002420;28;20065;-67
2021/11/16 04:34:02;;;;;;;75.05;37.45;;;5.40;99.90;;;;;;5009492;28;20443;-67
2021/11/16 04:36:28;;;;;;;78.18;38.17;;;5.40;99.90;;;;;;5023160;28;20037;-67
2021/11/16 04:38:53;;;;;;;69.88;36.85;;;5.40;99.90;;;;;;5024128;28;20042;-66
2021/11/16 04:41:19;;;;;;;72.28;35.55;;;5.40;99.90;;;;;;4999789;28;20064;-67
2021/11/16 04:43:45;;;;;;;74.50;37.45;;;5.40;99.90;;;;;;5026044;28;20076;-64
2021/11/16 04:46:15;;;;;;;74.38;37.70;;;5.40;99.90;;;;;;5020952;28;20103;-64
2021/11/16 04:48:56;;;;;;;71.30;34.95;;;5.40;99.90;;;;;;5026126;28;20045;-64
2021/11/16 05:04:29;;;;;;;72.38;35.60;;;5.30;99.90;;;;;;5029535;28;20102;-66
2021/11/16 05:06:57;;;;;;;74.18;36.08;;;5.30;99.90;;;;;;5017370;28;20041;-66
2021/11/16 05:09:22;;;;;;;74.68;37.03;;;5.30;99.90;;;;;;5022291;28;20050;-66
2021/11/16 05:11:48;;;;;;;73.70;35.80;;;5.30;99.90;;;;;;5005953;28;20042;-66
2021/11/16 05:14:14;;;;;;;73.30;35.20;;;5.20;99.90;;;;;;5022788;28;20076;-66
2021/11/16 05:16:40;;;;;;;74.50;34.78;;;5.20;99.90;;;;;;5019875;28;20110;-67
2021/11/16 05:19:06;;;;;;;72.47;36.10;;;5.20;99.90;;;;;;5025628;28;20049;-66
2021/11/16 05:21:32;;;;;;;78.05;37.83;;;5.20;99.90;;;;;;5016813;28;20037;-66
2021/11/16 05:23:59;;;;;;;74.40;35.58;;;5.20;99.90;;;;;;5024005;28;20199;-66
2021/11/16 05:26:27;;;;;;;78.45;37.58;;;5.20;99.90;;;;;;5025390;28;20049;-66
2021/11/16 05:28:54;;;;;;;77.35;36.45;;;5.20;99.90;;;;;;4998949;28;20041;-66
2021/11/16 05:31:21;;;;;;;81.80;38.80;;;5.20;99.90;;;;;;5024688;28;20397;-64
2021/11/16 05:33:52;;;;;;;71.68;34.63;;;5.20;99.90;;;;;;5003302;28;20103;-66
2021/11/16 05:36:18;;;;;;;72.13;36.08;;;5.20;99.90;;;;;;5002963;28;20512;-66
2021/11/16 05:38:48;;;;;;;74.80;37.03;;;5.20;99.90;;;;;;5004733;28;20500;-66
2021/11/16 05:41:16;;;;;;;73.05;36.22;;;5.20;99.90;;;;;;5007125;28;20064;-65
2021/11/16 05:43:44;;;;;;;75.90;34.70;;;5.20;99.90;;;;;;5015677;28;20048;-65
2021/11/16 05:46:10;;;;;;;75.10;36.25;;;5.30;99.90;;;;;;5032292;28;20033;-65
2021/11/16 05:48:39;;;;;;;72.57;36.25;;;5.20;99.90;;;;;;5006392;28;20045;-65
2021/11/16 05:51:06;;;;;;;76.85;36.25;;;5.30;99.90;;;;;;5023703;28;20585;-65
2021/11/16 05:53:32;;;;;;;73.50;35.65;;;5.30;99.90;;;;;;5022751;28;20030;-65
2021/11/16 05:55:58;;;;;;;72.30;36.03;;;5.30;99.90;;;;;;5005758;28;20127;-65
2021/11/16 05:58:24;;;;;;;78.70;38.17;;;5.30;99.90;;;;;;5018343;28;20037;-66
2021/11/16 06:00:51;;;;;;;71.47;34.80;;;5.30;99.90;;;;;;5025606;28;20045;-66
2021/11/16 06:03:17;;;;;;;76.07;37.92;;;5.30;99.90;;;;;;5001205;28;20041;-66
2021/11/16 06:05:43;;;;;;;73.85;37.50;;;5.30;99.90;;;;;;5008403;28;20079;-66
2021/11/16 06:08:23;;;;;;;75.55;36.33;;;5.30;99.90;;;;;;5028470;28;20116;-66
2021/11/16 06:10:49;;;;;;;82.70;37.20;;;5.30;99.90;;;;;;5025712;28;20597;-66
2021/11/16 06:13:15;;;;;;;80.28;37.33;;;5.30;99.90;;;;;;5017237;28;20379;-66
2021/11/16 06:15:41;;;;;;;74.75;36.72;;;5.30;99.90;;;;;;5022263;28;20083;-66
2021/11/16 06:18:06;;;;;;;76.18;37.20;;;5.30;99.90;;;;;;5004326;28;20038;-66
2021/11/16 06:20:33;;;;;;;78.00;37.70;;;5.30;99.90;;;;;;5020206;28;20131;-66
2021/11/16 06:22:59;;;;;;;76.25;37.92;;;5.30;99.90;;;;;;5028293;28;20490;-66
2021/11/16 06:25:24;;;;;;;76.50;38.78;;;5.30;99.90;;;;;;5016265;28;20041;-66
2021/11/16 06:27:50;;;;;;;76.78;37.75;;;5.30;99.90;;;;;;5024454;28;20030;-66
2021/11/16 06:30:16;;;;;;;78.90;38.45;;;5.30;99.90;;;;;;5001021;28;20046;-66
2021/11/16 06:32:42;;;;;;;81.55;37.35;;;5.30;99.90;;;;;;4989525;28;20052;-66
2021/11/16 06:35:16;;;;;;;85.72;39.83;;;5.30;99.90;;;;;;5020515;28;20447;-66
2021/11/16 06:37:42;;;;;;;78.03;37.70;;;5.30;99.90;;;;;;5025893;28;20485;-66
2021/11/16 06:40:08;;;;;;;80.15;37.95;;;5.30;99.90;;;;;;5020336;28;20071;-66
2021/11/16 06:42:33;;;;;;;74.50;37.53;;;5.30;99.90;;;;;;5024251;28;20053;-66
2021/11/16 06:44:59;;;;;;;82.85;38.28;;;5.20;99.90;;;;;;5005328;28;20042;-65
2021/11/16 06:47:25;;;;;;;82.90;39.10;;;5.20;99.90;;;;;;5024791;28;20037;-65
2021/11/16 06:49:51;;;;;;;78.15;36.63;;;5.20;99.90;;;;;;5023773;28;20402;-65
2021/11/16 06:52:18;;;;;;;78.15;37.75;;;5.20;99.90;;;;;;5023325;28;20520;-66
2021/11/16 06:54:44;;;;;;;85.20;38.25;;;5.20;99.90;;;;;;5004491;28;20128;-66
2021/11/16 06:57:12;;;;;;;78.32;37.75;;;5.20;99.90;;;;;;5020335;28;20040;-66
2021/11/16 06:59:39;;;;;;;79.95;36.45;;;5.20;99.90;;;;;;5020386;28;20064;-66
2021/11/16 07:02:05;;;;;;;79.85;36.83;;;5.20;99.90;;;;;;5017414;28;20045;-66
2021/11/16 07:04:37;;;;;;;77.13;37.10;;;5.20;99.90;;;;;;5011693;28;20061;-66
2021/11/16 07:07:04;;;;;;;82.72;38.72;;;5.20;99.90;;;;;;5021255;28;20045;-66
2021/11/16 07:09:36;;;;;;;74.40;37.38;;;5.20;99.90;;;;;;5029426;28;20046;-66
2021/11/16 07:12:08;;;;;;;78.85;36.08;;;5.20;99.90;;;;;;5024804;28;20049;-66
2021/11/16 07:14:37;;;;;;;84.10;38.38;;;5.20;99.90;;;;;;5025277;28;20029;-66
2021/11/16 07:17:08;;;;;;;83.95;37.88;;;5.20;99.90;;;;;;5003664;28;20073;-67
2021/11/16 07:19:43;;;;;;;81.57;38.00;;;5.20;99.90;;;;;;5030012;28;20091;-67
2021/11/16 07:22:12;;;;;;;78.45;36.95;;;5.20;99.90;;;;;;5020803;28;20339;-67
2021/11/16 07:24:54;;;;;;;79.95;36.30;;;5.20;99.90;;;;;;5026637;28;20030;-67
2021/11/16 07:27:22;;;;;;;78.18;37.00;;;5.20;99.90;;;;;;5005048;28;20049;-66
2021/11/16 07:29:51;;;;;;;77.28;34.80;;;5.20;99.90;;;;;;5026318;28;20048;-66
2021/11/16 07:32:28;;;;;;;78.63;35.60;;;5.20;99.90;;;;;;5020168;28;20058;-66
2021/11/16 07:35:00;;;;;;;79.28;36.30;;;5.20;99.90;;;;;;5030659;28;20073;-66
2021/11/16 07:37:32;;;;;;;74.32;35.97;;;5.20;99.90;;;;;;5023228;28;20437;-66
2021/11/16 07:40:03;;;;;;;78.60;36.85;;;5.20;99.90;;;;;;5023623;28;20038;-66
2021/11/16 07:42:45;;;;;;;80.05;36.85;;;5.20;99.90;;;;;;5006846;28;20128;-69
2021/11/16 07:45:12;;;;;;;85.68;37.63;;;5.20;99.90;;;;;;5028354;28;20054;-66
2021/11/16 07:47:39;;;;;;;83.57;37.85;;;5.20;99.90;;;;;;4984335;28;20046;-66
2021/11/16 07:50:07;;;;;;;80.25;35.95;;;5.20;99.90;;;;;;5028563;28;20096;-66
2021/11/16 07:52:33;;;;;;;77.68;36.45;;;5.20;99.90;;;;;;5018640;28;20076;-67
2021/11/16 07:54:59;;;;;;;84.70;35.50;;;5.20;99.90;;;;;;5029351;28;20137;-66
2021/11/16 07:57:25;;;;;;;80.50;34.17;;;5.20;99.90;;;;;;5029709;28;20042;-66
2021/11/16 07:59:55;;;;;;;83.72;35.67;;;5.20;99.90;;;;;;4999065;28;20042;-66
2021/11/16 08:02:51;;;;;;;84.75;36.80;;;5.10;99.90;;;;;;5025777;28;20476;-66
2021/11/16 08:05:32;;;;;;;78.75;35.35;;;5.10;99.90;;;;;;5007422;28;20466;-66
2021/11/16 08:08:24;;;;;;;74.88;33.67;;;5.10;99.90;;;;;;5025439;28;20064;-67
2021/11/16 08:11:05;;;;;;;73.22;33.92;;;5.10;99.90;;;;;;5024778;28;20091;-66
2021/11/16 08:13:33;;;;;;;81.15;36.45;;;5.10;99.90;;;;;;5021913;28;20044;-66
2021/11/16 08:16:10;;;;;;;81.38;33.55;;;5.20;99.90;;;;;;5029721;28;20140;-66
2021/11/16 08:19:10;;;;;;;74.45;32.63;;;5.10;99.90;;;;;;5018228;28;20091;-66
2021/11/16 08:21:43;;;;;;;71.65;33.58;;;5.20;99.90;;;;;;5007186;28;20064;-67
2021/11/16 08:24:13;;;;;;;76.60;35.63;;;5.10;99.90;;;;;;5023960;28;20041;-66
2021/11/16 08:26:45;;;;;;;82.20;34.95;;;5.10;99.90;;;;;;5008187;28;20542;-66
2021/11/16 08:29:15;;;;;;;75.28;34.03;;;5.20;99.90;;;;;;5019168;28;20057;-66
2021/11/16 08:31:51;;;;;;;80.90;35.08;;;5.20;99.90;;;;;;5030449;28;20473;-66
2021/11/16 08:34:18;;;;;;;75.63;34.92;;;5.20;99.90;;;;;;5020149;28;20048;-67
2021/11/16 08:36:47;;;;;;;76.57;33.83;;;5.20;99.90;;;;;;5026967;28;20131;-66
2021/11/16 08:39:14;;;;;;;73.15;33.53;;;5.20;99.90;;;;;;5006576;28;20047;-66
2021/11/16 08:41:40;;;;;;;80.05;34.45;;;5.20;99.90;;;;;;5026288;28;20096;-66
2021/11/16 08:44:18;;;;;;;87.38;38.35;;;5.30;99.90;;;;;;5014915;28;20050;-66
2021/11/16 08:46:46;;;;;;;75.85;34.97;;;5.20;99.90;;;;;;5025356;28;20069;-66
2021/11/16 08:49:25;;;;;;;71.32;33.55;;;5.20;99.90;;;;;;5027952;28;20401;-66
2021/11/16 08:51:52;;;;;;;73.53;33.33;;;5.20;99.90;;;;;;5016292;28;20073;-66
2021/11/16 08:54:36;;;;;;;71.78;33.20;;;5.30;99.90;;;;;;5028319;28;20330;-67
2021/11/16 08:57:14;;;;;;;77.53;35.08;;;5.30;99.90;;;;;;5004367;28;20046;-67
2021/11/16 08:59:40;;;;;;;77.05;34.50;;;5.30;99.90;;;;;;5023667;28;20044;-66
2021/11/16 09:02:07;;;;;;;63.88;31.45;;;5.30;99.90;;;;;;5004163;28;20351;-66
2021/11/16 09:04:36;;;;;;;75.03;32.42;;;5.30;99.90;;;;;;5028903;28;20045;-66
2021/11/16 09:07:17;;;;;;;86.10;36.42;;;5.30;99.90;;;;;;4984796;28;20060;-66
2021/11/16 09:09:57;;;;;;;79.07;34.45;;;5.30;99.90;;;;;;5021996;28;20048;-66
2021/11/16 09:12:42;;;;;;;83.45;37.08;;;5.30;99.90;;;;;;5021505;28;20071;-66
2021/11/16 09:15:11;;;;;;;82.05;36.72;;;5.30;99.90;;;;;;5009641;28;20060;-66
2021/11/16 09:17:39;;;;;;;85.47;37.47;;;5.20;99.90;;;;;;5020401;28;20612;-65
2021/11/16 09:20:24;;;;;;;86.25;36.00;;;5.30;99.90;;;;;;5028283;28;20508;-66
2021/11/16 09:22:52;;;;;;;81.22;33.85;;;5.30;99.90;;;;;;4999852;28;20045;-66
2021/11/16 09:25:28;;;;;;;83.55;36.30;;;5.30;99.90;;;;;;5005592;28;20489;-66
2021/11/16 09:28:01;;;;;;;87.97;36.50;;;5.30;99.90;;;;;;5021539;28;20065;-66
2021/11/16 09:30:42;;;;;;;89.07;38.15;;;5.30;99.90;;;;;;5005256;28;20050;-66
2021/11/16 09:33:13;;;;;;;81.95;36.55;;;5.20;99.90;;;;;;5001172;28;20048;-66
2021/11/16 09:35:55;;;;;;;77.45;35.38;;;5.20;99.90;;;;;;5026868;28;20099;-66
2021/11/16 09:38:41;;;;;;;84.95;36.63;;;5.20;99.90;;;;;;5019561;28;20421;-66
2021/11/16 09:41:07;;;;;;;84.13;36.72;;;5.20;99.90;;;;;;5023708;28;20065;-66
2021/11/16 09:43:33;;;;;;;82.47;35.25;;;5.20;99.90;;;;;;5002868;28;20961;-66
2021/11/16 09:46:14;;;;;;;83.53;35.75;;;5.20;99.90;;;;;;5010476;28;20068;-66
2021/11/16 09:48:40;;;;;;;77.55;35.08;;;5.20;99.90;;;;;;5019137;28;20044;-66
2021/11/16 09:51:18;;;;;;;87.40;36.20;;;5.20;99.90;;;;;;5007931;28;20398;-66
2021/11/16 09:53:45;;;;;;;87.15;38.25;;;5.20;99.90;;;;;;5002984;28;20033;-66
2021/11/16 09:56:24;;;;;;;89.28;37.05;;;5.20;99.90;;;;;;5019812;28;20512;-66
2021/11/16 09:58:51;;;;;;;82.85;37.20;;;5.30;99.90;;;;;;5014869;28;20457;-66
2021/11/16 10:01:27;;;;;;;87.05;36.05;;;5.30;99.90;;;;;;5027912;28;20072;-66
2021/11/16 10:04:30;;;;;;;90.82;37.15;;;5.20;99.90;;;;;;5019561;28;20144;-66
2021/11/16 10:06:56;;;;;;;87.28;36.92;;;5.30;99.90;;;;;;4986445;28;20502;-66
2021/11/16 10:09:23;;;;;;;88.00;35.00;;;5.30;99.90;;;;;;5000385;28;20136;-66
2021/11/16 10:11:53;;;;;;;82.22;33.65;;;5.30;99.90;;;;;;5003897;28;20064;-66
2021/11/16 10:14:22;;;;;;;76.15;34.53;;;5.30;99.90;;;;;;4999692;28;20576;-66
2021/11/16 10:16:49;;;;;;;81.28;34.92;;;5.40;99.90;;;;;;5010329;28;20117;-66
2021/11/16 10:19:15;;;;;;;82.18;36.15;;;5.30;99.90;;;;;;5019196;28;20382;-66
2021/11/16 10:21:42;;;;;;;77.05;34.08;;;5.40;99.90;;;;;;5018432;28;20037;-66
2021/11/16 10:24:21;;;;;;;78.68;34.05;;;5.40;99.90;;;;;;5021624;28;20548;-66
2021/11/16 10:26:47;;;;;;;88.75;35.90;;;5.40;99.90;;;;;;5022409;28;20045;-66
2021/11/16 10:29:17;;;;;;;85.22;35.90;;;5.30;99.90;;;;;;5000568;28;20079;-66
2021/11/16 10:31:44;;;;;;;87.05;36.30;;;5.40;99.90;;;;;;5005689;28;20049;-66
2021/11/16 10:34:09;;;;;;;79.22;34.97;;;5.40;99.90;;;;;;5018222;28;20048;-66
2021/11/16 10:36:35;;;;;;;78.22;36.22;;;5.40;99.90;;;;;;5023415;28;20493;-66
2021/11/16 10:39:02;;;;;;;77.45;34.20;;;5.40;99.90;;;;;;5017631;28;20084;-67
2021/11/16 10:41:31;;;;;;;80.55;35.67;;;5.50;99.90;;;;;;5020781;28;20111;-66
2021/11/16 10:44:16;;;;;;;75.35;35.35;;;5.40;99.90;;;;;;5019842;28;20124;-66
2021/11/16 10:46:44;;;;;;;73.80;34.15;;;5.40;99.90;;;;;;5023397;28;20042;-66
2021/11/16 10:49:15;;;;;;;70.72;32.55;;;5.40;99.90;;;;;;5018870;28;20050;-66
2021/11/16 10:51:46;;;;;;;74.57;33.20;;;5.40;99.90;;;;;;5024516;28;20072;-65
2021/11/16 10:54:13;;;;;;;72.80;32.42;;;5.40;99.90;;;;;;5026396;28;20357;-66
2021/11/16 10:56:40;;;;;;;68.68;31.63;;;5.50;99.90;;;;;;5018662;28;20553;-66
2021/11/16 10:59:17;;;;;;;67.10;31.85;;;5.40;99.90;;;;;;5023659;28;20405;-66
2021/11/16 11:01:52;;;;;;;77.35;33.63;;;5.40;99.90;;;;;;5020734;28;20041;-67
2021/11/16 11:04:20;;;;;;;71.07;31.05;;;5.40;99.90;;;;;;5024557;28;20050;-66
2021/11/16 11:06:49;;;;;;;68.10;31.50;;;5.40;99.90;;;;;;5018501;28;20061;-67
2021/11/16 11:09:17;;;;;;;71.57;31.83;;;5.40;99.90;;;;;;5025049;28;20052;-66
2021/11/16 11:11:54;;;;;;;71.57;30.30;;;5.40;99.90;;;;;;5017316;28;20037;-66
2021/11/16 11:14:45;;;;;;;66.55;29.80;;;5.40;99.90;;;;;;5002009;28;20425;-66
2021/11/16 11:17:11;;;;;;;64.38;29.58;;;5.50;99.90;;;;;;5019206;28;20042;-66
2021/11/16 11:19:40;;;;;;;54.22;27.40;;;5.50;99.90;;;;;;5024406;28;20041;-66
2021/11/16 11:30:01;;;;;;;67.72;31.20;;;5.50;99.90;;;;;;5016909;28;20042;-66
2021/11/16 11:32:36;;;;;;;69.10;31.07;;;5.50;99.90;;;;;;5019335;28;20425;-66
2021/11/16 11:35:08;;;;;;;66.28;31.98;;;5.50;99.90;;;;;;5008937;28;20764;-66
2021/11/16 11:37:46;;;;;;;71.72;33.03;;;5.50;99.90;;;;;;5000247;28;20037;-66
2021/11/16 11:40:16;;;;;;;72.63;32.35;;;5.50;99.90;;;;;;5026130;28;20068;-66
2021/11/16 11:42:44;;;;;;;69.72;32.20;;;5.40;99.90;;;;;;5018458;28;20053;-66
2021/11/16 11:45:37;;;;;;;73.78;34.22;;;5.50;99.90;;;;;;5020176;28;20175;-66
2021/11/16 11:48:03;;;;;;;76.45;36.70;;;5.50;99.90;;;;;;5017547;28;20075;-66
2021/11/16 11:50:35;;;;;;;77.88;35.33;;;5.50;99.90;;;;;;5004156;28;20056;-66
2021/11/16 11:53:14;;;;;;;82.07;35.72;;;5.50;99.90;;;;;;5005377;28;20060;-66
2021/11/16 11:55:59;;;;;;;77.43;36.90;;;5.40;99.90;;;;;;5028118;28;20516;-67
2021/11/16 11:58:27;;;;;;;80.83;36.00;;;5.50;99.90;;;;;;5021728;28;20071;-66
2021/11/16 12:00:59;;;;;;;68.63;34.13;;;5.40;99.90;;;;;;5007320;28;20191;-66
2021/11/16 12:03:26;;;;;;;78.43;33.83;;;5.50;99.90;;;;;;5003880;28;20188;-67
2021/11/16 12:05:52;;;;;;;71.85;34.22;;;5.50;99.90;;;;;;5010551;28;20088;-66
2021/11/16 12:08:18;;;;;;;71.13;32.97;;;5.50;99.90;;;;;;5003652;28;20054;-66
2021/11/16 12:10:48;;;;;;;69.45;34.22;;;5.50;99.90;;;;;;5011166;28;20459;-67
2021/11/16 12:13:19;;;;;;;70.13;32.88;;;5.50;99.90;;;;;;5004787;28;20045;-66
2021/11/16 12:16:02;;;;;;;62.45;31.48;;;5.50;99.90;;;;;;5009622;28;20037;-66
2021/11/16 12:18:39;;;;;;;66.70;32.60;;;5.50;99.90;;;;;;4998327;28;20053;-66
2021/11/16 12:21:34;;;;;;;68.72;31.77;;;5.50;99.90;;;;;;5009476;28;20430;-66
2021/11/16 12:24:03;;;;;;;71.55;32.45;;;5.40;99.90;;;;;;5003487;28;20550;-66
2021/11/16 12:26:32;;;;;;;67.10;31.15;;;5.40;99.90;;;;;;5006543;28;20481;-66
2021/11/16 12:29:19;;;;;;;66.70;31.65;;;5.40;99.90;;;;;;5007550;28;20509;-66
2021/11/16 12:31:48;;;;;;;67.90;33.45;;;5.40;99.90;;;;;;5028740;28;20045;-66
2021/11/16 12:34:34;;;;;;;66.50;32.65;;;5.40;99.90;;;;;;5017868;28;20044;-66
2021/11/16 12:37:01;;;;;;;65.45;32.78;;;5.50;99.90;;;;;;5009649;28;20080;-66
2021/11/16 12:39:27;;;;;;;68.78;32.47;;;5.50;99.90;;;;;;5020418;28;20132;-66
2021/11/16 12:42:19;;;;;;;71.80;33.42;;;5.50;99.90;;;;;;5024688;28;20140;-66
2021/11/16 12:45:00;;;;;;;67.80;32.45;;;5.50;99.90;;;;;;5013331;28;20133;-66
2021/11/16 12:47:31;;;;;;;69.28;32.75;;;5.50;99.90;;;;;;5027194;28;20537;-66
2021/11/16 12:50:11;;;;;;;69.50;32.63;;;5.50;99.90;;;;;;5022316;28;20047;-66
2021/11/16 12:52:49;;;;;;;63.83;30.95;;;5.40;99.90;;;;;;5025885;28;20096;-66
2021/11/16 12:55:28;;;;;;;68.05;33.33;;;5.40;99.90;;;;;;5019899;28;20451;-66
2021/11/16 12:57:57;;;;;;;70.53;33.42;;;5.40;99.90;;;;;;5028083;28;20044;-66
2021/11/16 13:00:38;;;;;;;70.10;33.72;;;5.40;99.90;;;;;;5017343;28;20041;-66
2021/11/16 13:03:05;;;;;;;73.43;33.88;;;5.40;99.90;;;;;;5026378;28;20056;-66
2021/11/16 13:05:41;;;;;;;63.83;31.63;;;5.40;99.90;;;;;;5024713;28;20041;-66
2021/11/16 13:08:08;;;;;;;66.10;31.65;;;5.40;99.90;;;;;;5024901;28;20499;-67
2021/11/16 13:10:46;;;;;;;71.90;33.28;;;5.40;99.90;;;;;;5003422;28;20077;-66